Time;durP1;ratioP1;P1;durP2;ratioP2;P2;SDS_P1;SDS_P2;PMS_P1;PMS_P2;Temp;Humidity;BMP_temperature;BMP_pressure;BME280_temperature;BME280_humidity;BME280_pressure;Samples;Min_cycle;Max_cycle;Signal;HPM_P1;HPM_P2
2022/09/06 00:00:00;;;;;;;7.50;2.90;;;;;;;22.22;73.42;100914.41;4994910;28;20046;-70
2022/09/06 00:02:32;;;;;;;6.85;2.90;;;;;;;22.08;73.37;100919.06;4992932;28;20057;-64
2022/09/06 00:04:59;;;;;;;7.55;3.13;;;;;;;22.05;73.67;100919.84;4995914;28;20067;-64
2022/09/06 00:07:27;;;;;;;6.00;3.03;;;;;;;22.12;73.66;100919.94;4993341;28;20514;-64
2022/09/06 00:09:55;;;;;;;8.15;3.30;;;;;;;22.16;74.49;100929.97;4993836;28;20054;-65
2022/09/06 00:12:23;;;;;;;5.30;2.75;;;;;;;22.06;73.09;100933.50;4993802;28;20054;-65
2022/09/06 00:14:50;;;;;;;5.90;3.00;;;;;;;21.88;75.17;100921.28;4994479;28;20042;-64
2022/09/06 00:17:18;;;;;;;7.32;3.28;;;;;;;21.95;74.86;100928.97;4994141;28;20069;-65
2022/09/06 00:19:45;;;;;;;8.40;3.60;;;;;;;21.94;74.81;100921.75;4986660;28;20565;-64
2022/09/06 00:22:13;;;;;;;9.98;3.33;;;;;;;22.10;74.94;100931.53;4992351;28;20053;-64
2022/09/06 00:24:41;;;;;;;10.88;3.30;;;;;;;22.07;74.70;100934.31;4996106;28;20046;-64
2022/09/06 00:27:08;;;;;;;6.95;3.17;;;;;;;22.00;74.89;100929.41;4992559;28;20396;-64
2022/09/06 00:29:36;;;;;;;7.97;3.20;;;;;;;21.94;75.58;100936.59;4993694;28;20054;-64
2022/09/06 00:32:03;;;;;;;9.40;3.25;;;;;;;22.05;75.42;100931.91;4995472;28;20050;-64
2022/09/06 00:34:30;;;;;;;9.82;3.40;;;;;;;22.17;75.52;100939.22;4995686;28;20061;-64
2022/09/06 00:36:57;;;;;;;9.85;3.42;;;;;;;21.89;75.41;100936.13;4988588;28;20387;-63
2022/09/06 00:39:25;;;;;;;5.47;3.22;;;;;;;21.78;75.06;100921.97;4994873;28;20398;-64
2022/09/06 00:41:52;;;;;;;7.13;3.15;;;;;;;21.90;75.10;100932.09;4993281;28;20069;-64
2022/09/06 00:44:19;;;;;;;9.65;3.10;;;;;;;21.95;74.73;100937.41;4994440;28;20059;-63
2022/09/06 00:46:48;;;;;;;8.50;3.30;;;;;;;21.92;74.58;100933.34;4992231;28;20046;-64
2022/09/06 00:49:30;;;;;;;7.38;2.78;;;;;;;22.04;74.23;100930.25;5026128;28;20054;-64
2022/09/06 00:52:01;;;;;;;9.95;3.10;;;;;;;22.01;74.71;100933.84;4994778;28;20057;-65
2022/09/06 00:54:29;;;;;;;5.88;2.90;;;;;;;21.83;74.22;100932.84;4993632;28;20054;-64
2022/09/06 00:56:57;;;;;;;7.97;3.47;;;;;;;22.14;73.78;100929.56;4992629;28;20049;-63
2022/09/06 00:59:28;;;;;;;7.80;2.75;;;;;;;22.14;73.25;100934.38;4993245;28;20069;-64
2022/09/06 01:01:56;;;;;;;6.90;2.90;;;;;;;22.16;72.91;100932.78;4991691;28;20042;-64
2022/09/06 01:04:25;;;;;;;6.82;2.88;;;;;;;22.30;72.47;100941.34;4995368;28;20053;-64
2022/09/06 01:07:20;;;;;;;7.20;2.90;;;;;;;22.09;71.84;100932.72;4987179;28;20058;-64
2022/09/06 01:09:55;;;;;;;7.03;2.92;;;;;;;22.51;72.21;100935.09;4993455;28;20058;-64
2022/09/06 01:12:44;;;;;;;6.60;2.72;;;;;;;22.17;70.97;100928.81;4993371;28;20046;-64
2022/09/06 01:15:42;;;;;;;6.82;2.83;;;;;;;22.20;71.52;100933.63;4992859;28;20051;-64
2022/09/06 01:18:15;;;;;;;6.15;2.90;;;;;;;22.22;71.27;100931.25;4991197;28;20058;-64
2022/09/06 01:20:49;;;;;;;8.88;3.92;;;;;;;22.37;71.83;100931.38;5025558;28;20050;-64
2022/09/06 01:23:35;;;;;;;12.35;3.30;;;;;;;22.23;72.18;100921.63;4995132;28;20046;-64
2022/09/06 01:26:23;;;;;;;6.35;2.83;;;;;;;22.30;71.18;100929.31;4994538;28;20054;-64
2022/09/06 01:28:51;;;;;;;8.45;2.72;;;;;;;22.30;70.66;100924.50;4990085;28;20070;-64
2022/09/06 01:31:21;;;;;;;5.68;2.65;;;;;;;21.97;70.96;100927.38;4986557;28;20042;-64
2022/09/06 01:34:05;;;;;;;6.07;2.67;;;;;;;21.98;71.18;100936.63;4974922;28;20055;-64
2022/09/06 01:36:54;;;;;;;6.53;3.15;;;;;;;22.08;72.33;100930.31;4965994;28;20081;-64
2022/09/06 01:39:37;;;;;;;6.95;2.80;;;;;;;22.13;72.60;100939.19;4991841;28;20066;-65
2022/09/06 01:42:09;;;;;;;7.55;3.72;;;;;;;22.25;71.21;100924.88;4988997;28;20034;-64
2022/09/06 01:44:39;;;;;;;7.95;3.10;;;;;;;22.18;72.22;100933.22;4993783;28;20058;-64
2022/09/06 01:47:11;;;;;;;5.78;3.08;;;;;;;22.26;71.68;100925.69;4993835;28;20042;-64
2022/09/06 01:50:01;;;;;;;7.28;2.95;;;;;;;22.16;71.20;100920.75;4962645;28;20058;-64
2022/09/06 01:52:32;;;;;;;6.35;2.67;;;;;;;22.15;71.86;100927.56;4997702;28;20079;-64
2022/09/06 01:55:18;;;;;;;;;;;;;;;22.14;71.76;100926.75;4999236;28;20050;-64
2022/09/06 01:57:58;;;;;;;8.23;2.80;;;;;;;22.08;71.95;100924.69;4997494;28;19948;-63
2022/09/06 02:00:26;;;;;;;5.85;2.75;;;;;;;22.01;71.44;100927.41;4974360;28;20046;-64
2022/09/06 02:03:07;;;;;;;7.20;3.00;;;;;;;22.01;71.92;100925.44;4997054;28;20047;-64
2022/09/06 02:05:43;;;;;;;7.63;3.25;;;;;;;22.09;71.71;100915.06;4996158;28;20070;-65
2022/09/06 02:08:22;;;;;;;5.43;2.75;;;;;;;22.04;70.66;100910.63;4995402;28;20042;-70
2022/09/06 02:10:58;;;;;;;7.25;2.97;;;;;;;22.00;71.51;100906.19;4996545;28;20050;-70
2022/09/06 02:13:30;;;;;;;9.25;2.90;;;;;;;21.98;71.50;100906.56;4996953;28;20510;-70
2022/09/06 02:16:02;;;;;;;6.07;3.00;;;;;;;22.03;71.83;100906.22;4979758;28;20047;-70
2022/09/06 02:18:40;;;;;;;5.80;2.97;;;;;;;22.04;72.61;100921.03;4996866;28;20050;-70
2022/09/06 02:21:09;;;;;;;6.13;2.80;;;;;;;21.95;72.27;100915.75;4995798;28;20050;-69
2022/09/06 02:23:39;;;;;;;8.37;3.17;;;;;;;21.88;72.48;100920.50;4997847;28;20054;-69
2022/09/06 02:26:25;;;;;;;8.93;3.20;;;;;;;21.79;72.90;100929.19;4996961;28;20066;-70
2022/09/06 02:28:54;;;;;;;7.55;3.08;;;;;;;21.86;73.72;100932.06;4978645;28;20860;-69
2022/09/06 02:31:26;;;;;;;7.45;3.05;;;;;;;21.62;73.75;100924.16;4988262;28;20524;-69
2022/09/06 02:33:54;;;;;;;6.28;3.05;;;;;;;21.58;73.87;100922.50;4996126;28;20050;-69
2022/09/06 02:36:22;;;;;;;6.88;3.42;;;;;;;21.65;73.71;100917.81;4996276;28;20524;-69
2022/09/06 02:38:49;;;;;;;8.38;3.10;;;;;;;21.51;74.38;100917.63;4992481;28;20089;-68
2022/09/06 02:41:22;;;;;;;7.38;3.40;;;;;;;21.49;74.38;100911.59;5027797;28;20061;-64
2022/09/06 02:43:50;;;;;;;6.82;3.40;;;;;;;21.47;74.66;100908.38;4996133;28;20049;-64
2022/09/06 02:46:17;;;;;;;10.02;4.00;;;;;;;21.50;75.26;100913.19;4995815;28;20063;-65
2022/09/06 02:48:45;;;;;;;8.10;3.65;;;;;;;21.46;74.49;100926.38;4996594;28;20054;-63
2022/09/06 02:51:12;;;;;;;7.63;3.83;;;;;;;21.50;74.61;100912.38;4980006;28;20042;-63
2022/09/06 02:53:40;;;;;;;8.23;4.25;;;;;;;21.42;74.83;100911.50;4997032;28;20054;-63
2022/09/06 02:56:08;;;;;;;8.38;3.50;;;;;;;21.49;74.56;100910.78;4979693;28;20053;-63
2022/09/06 02:58:35;;;;;;;8.05;4.00;;;;;;;21.16;75.85;100906.78;4995694;28;20047;-64
2022/09/06 03:01:03;;;;;;;7.85;3.42;;;;;;;21.41;76.08;100911.91;4995307;28;20548;-64
2022/09/06 03:03:30;;;;;;;10.88;4.20;;;;;;;21.40;75.87;100916.69;4996006;28;20047;-65
2022/09/06 03:05:57;;;;;;;7.25;3.47;;;;;;;21.43;76.06;100924.31;4995264;28;20046;-63
2022/09/06 03:08:25;;;;;;;9.52;3.97;;;;;;;21.50;75.89;100920.78;4993726;28;20046;-63
2022/09/06 03:10:54;;;;;;;7.47;3.80;;;;;;;21.54;75.67;100936.47;4995395;28;20038;-64
2022/09/06 03:13:23;;;;;;;9.13;3.57;;;;;;;21.17;75.82;100930.81;4997396;28;20051;-64
2022/09/06 03:15:55;;;;;;;10.82;3.90;;;;;;;21.17;77.85;100935.59;4994970;28;20051;-64
2022/09/06 03:18:23;;;;;;;7.63;3.67;;;;;;;21.27;77.58;100935.72;5012364;28;20043;-64
2022/09/06 03:20:52;;;;;;;7.50;3.80;;;;;;;21.15;77.67;100938.78;4996075;28;20042;-64
2022/09/06 03:23:22;;;;;;;7.20;3.65;;;;;;;21.11;77.20;100937.13;4985201;28;20522;-64
2022/09/06 03:25:50;;;;;;;13.07;4.40;;;;;;;20.98;77.88;100938.50;4996182;28;20114;-64
2022/09/06 03:28:18;;;;;;;10.07;3.75;;;;;;;20.90;78.69;100934.75;4995888;28;20054;-64
2022/09/06 03:30:49;;;;;;;12.00;3.67;;;;;;;20.70;79.60;100940.84;4996383;28;20061;-64
2022/09/06 03:33:18;;;;;;;11.48;4.00;;;;;;;20.90;79.41;100945.19;4995526;28;20042;-64
2022/09/06 03:35:51;;;;;;;12.52;4.03;;;;;;;20.98;78.58;100946.88;4994237;28;20057;-64
2022/09/06 03:38:19;;;;;;;11.85;3.95;;;;;;;21.02;78.17;100950.59;4983389;28;20667;-65
2022/09/06 03:40:47;;;;;;;9.68;3.83;;;;;;;21.01;78.89;100957.34;4995492;28;20057;-64
2022/09/06 03:43:16;;;;;;;9.05;4.20;;;;;;;21.06;77.91;100960.66;4996572;28;20051;-64
2022/09/06 03:45:48;;;;;;;9.75;3.92;;;;;;;21.06;77.84;100962.66;4994034;28;20314;-64
2022/09/06 03:48:17;;;;;;;8.52;3.88;;;;;;;21.07;78.04;100970.69;4995656;28;20065;-65
2022/09/06 03:50:49;;;;;;;9.30;4.10;;;;;;;20.94;78.41;100971.22;4978816;28;20057;-63
2022/09/06 03:53:17;;;;;;;9.70;4.05;;;;;;;20.93;78.16;100981.63;4996463;28;20046;-65
2022/09/06 03:55:49;;;;;;;7.43;4.07;;;;;;;21.11;78.89;100984.75;4993862;28;20057;-65
2022/09/06 03:58:18;;;;;;;7.75;4.03;;;;;;;21.15;77.44;100977.19;4994108;28;20769;-63
2022/09/06 04:00:45;;;;;;;7.70;3.63;;;;;;;21.19;77.20;100983.66;4995365;28;20046;-65
2022/09/06 04:03:13;;;;;;;9.20;4.10;;;;;;;21.15;77.58;100977.19;4994991;28;20049;-64
2022/09/06 04:05:44;;;;;;;8.57;4.00;;;;;;;21.10;78.01;100991.50;4994953;28;20050;-64
2022/09/06 04:08:12;;;;;;;8.70;3.67;;;;;;;21.01;77.00;100983.38;4993791;28;20065;-64
2022/09/06 04:10:39;;;;;;;8.65;3.90;;;;;;;20.96;77.48;100986.47;4993529;28;20081;-64
2022/09/06 04:13:07;;;;;;;8.13;3.40;;;;;;;20.93;76.95;100992.03;4995208;28;20046;-65
2022/09/06 04:15:36;;;;;;;10.88;3.97;;;;;;;20.86;77.03;100998.34;4977241;28;20058;-63
2022/09/06 04:18:03;;;;;;;5.63;3.15;;;;;;;20.97;77.94;101002.09;4978631;28;20418;-63
2022/09/06 04:20:35;;;;;;;8.02;3.60;;;;;;;20.89;77.13;101000.38;4978611;28;20055;-64
2022/09/06 04:23:06;;;;;;;6.28;3.40;;;;;;;21.03;77.45;101000.63;4993327;28;20406;-64
2022/09/06 04:25:34;;;;;;;10.98;4.10;;;;;;;21.01;77.43;101008.59;4993790;28;20607;-64
2022/09/06 04:28:01;;;;;;;10.02;3.35;;;;;;;20.97;77.96;101016.09;4995699;28;20054;-64
2022/09/06 04:30:29;;;;;;;8.23;3.58;;;;;;;21.19;77.26;101014.47;4994986;28;20407;-65
2022/09/06 04:32:56;;;;;;;11.32;3.80;;;;;;;21.19;76.25;101015.28;4994801;28;20073;-65
2022/09/06 04:35:23;;;;;;;10.48;3.70;;;;;;;21.17;76.00;101011.22;4993319;28;20062;-64
2022/09/06 04:37:51;;;;;;;11.05;3.42;;;;;;;21.29;76.03;101013.03;4993345;28;20054;-64
2022/09/06 04:40:18;;;;;;;12.15;3.65;;;;;;;21.25;74.82;101013.75;4993269;28;20449;-64
2022/09/06 04:42:45;;;;;;;9.85;3.50;;;;;;;21.20;75.50;101016.88;4995869;28;20520;-64
2022/09/06 04:45:13;;;;;;;6.43;3.10;;;;;;;21.42;74.54;101017.19;4993569;28;20061;-64
2022/09/06 04:47:40;;;;;;;6.97;2.97;;;;;;;21.61;74.10;101019.88;4977532;28;20524;-63
2022/09/06 04:50:08;;;;;;;5.22;3.03;;;;;;;21.50;73.67;101019.72;4965429;28;20051;-64
2022/09/06 04:52:35;;;;;;;7.53;3.10;;;;;;;21.50;72.60;101030.94;4994922;28;20062;-64
2022/09/06 04:55:02;;;;;;;8.70;2.80;;;;;;;21.43;72.80;101027.25;4993970;28;20046;-65
2022/09/06 04:57:31;;;;;;;7.32;3.30;;;;;;;21.49;72.74;101031.31;4994653;28;20061;-64
2022/09/06 04:59:59;;;;;;;7.75;3.20;;;;;;;21.40;72.90;101027.97;4993226;28;20623;-64
2022/09/06 05:02:26;;;;;;;8.10;2.97;;;;;;;21.45;72.84;101030.44;4992407;28;20062;-64
2022/09/06 05:04:54;;;;;;;7.18;3.40;;;;;;;21.68;71.64;101033.97;4992389;28;20050;-64
2022/09/06 05:07:21;;;;;;;6.68;2.83;;;;;;;21.60;72.41;101029.47;4994700;28;20057;-64
2022/09/06 05:09:48;;;;;;;10.13;3.28;;;;;;;21.50;71.13;101019.72;4993793;28;20065;-64
2022/09/06 05:12:16;;;;;;;7.32;3.20;;;;;;;21.40;71.50;101026.00;4991985;28;20059;-63
2022/09/06 05:14:43;;;;;;;7.38;2.95;;;;;;;21.42;69.29;101023.63;4989781;28;20050;-63
2022/09/06 05:17:13;;;;;;;6.00;3.25;;;;;;;21.69;71.50;101025.19;4994153;28;20058;-65
2022/09/06 05:19:41;;;;;;;6.20;3.03;;;;;;;21.68;70.64;101019.97;4993677;28;20065;-65
2022/09/06 05:22:10;;;;;;;10.85;3.20;;;;;;;21.56;71.49;101026.63;4993886;28;20050;-65
2022/09/06 05:24:38;;;;;;;7.93;3.27;;;;;;;21.50;71.29;101027.31;4994971;28;20422;-64
2022/09/06 05:27:06;;;;;;;9.65;3.38;;;;;;;21.44;71.83;101026.84;4994863;28;20058;-65
2022/09/06 05:29:33;;;;;;;7.50;3.55;;;;;;;21.38;71.83;101025.56;4976583;28;20414;-64
2022/09/06 05:32:01;;;;;;;9.45;3.35;;;;;;;21.36;71.58;101033.53;4989854;28;20043;-64
2022/09/06 05:34:28;;;;;;;7.07;3.22;;;;;;;21.38;72.00;101041.56;4993084;28;20054;-66
2022/09/06 05:36:56;;;;;;;9.00;3.40;;;;;;;21.30;71.25;101037.88;4994178;28;20054;-65
2022/09/06 05:39:23;;;;;;;10.07;3.33;;;;;;;21.18;71.25;101035.28;4994587;28;20046;-64
2022/09/06 05:41:50;;;;;;;12.43;3.58;;;;;;;21.24;71.70;101030.94;4993013;28;20122;-64
2022/09/06 05:44:18;;;;;;;7.28;2.95;;;;;;;21.39;71.72;101035.59;4990653;28;20042;-64
2022/09/06 05:46:45;;;;;;;8.93;3.10;;;;;;;21.37;71.21;101028.75;4994154;28;20046;-66
2022/09/06 05:49:12;;;;;;;7.78;3.22;;;;;;;21.47;71.16;101028.91;4994214;28;20379;-64
2022/09/06 05:51:40;;;;;;;8.45;3.45;;;;;;;21.58;71.44;101023.44;4994281;28;20061;-64
2022/09/06 05:54:10;;;;;;;8.85;3.40;;;;;;;21.55;71.50;101015.78;4976590;28;20055;-65
2022/09/06 05:56:37;;;;;;;9.77;3.13;;;;;;;21.61;71.61;101017.06;4994368;28;20073;-65
2022/09/06 05:59:04;;;;;;;7.13;3.20;;;;;;;21.36;71.25;101016.72;4994761;28;20054;-65
2022/09/06 06:01:32;;;;;;;9.43;3.30;;;;;;;21.38;72.07;101025.56;4974337;28;20050;-64
2022/09/06 06:04:01;;;;;;;12.52;3.83;;;;;;;21.50;71.60;101014.13;4991388;28;20050;-64
2022/09/06 06:06:30;;;;;;;8.93;4.13;;;;;;;21.50;72.07;101022.53;4991121;28;20054;-64
2022/09/06 06:08:58;;;;;;;8.70;4.03;;;;;;;21.56;71.44;101015.41;4994385;28;20502;-65
2022/09/06 06:11:26;;;;;;;7.60;4.03;;;;;;;21.66;71.37;101025.13;4983293;28;20046;-66
2022/09/06 06:13:53;;;;;;;11.15;4.43;;;;;;;21.70;70.15;101026.00;4995599;28;20146;-65
2022/09/06 06:16:21;;;;;;;13.95;7.13;;;;;;;21.70;71.28;101020.38;4993589;28;20042;-64
2022/09/06 06:18:49;;;;;;;9.95;5.28;;;;;;;21.78;70.65;101008.91;4992734;28;20133;-64
2022/09/06 06:21:21;;;;;;;9.18;4.05;;;;;;;21.51;70.66;101017.72;4975542;28;20053;-64
2022/09/06 06:23:51;;;;;;;10.13;3.20;;;;;;;21.74;71.45;101010.81;4993287;28;20795;-64
2022/09/06 06:26:19;;;;;;;15.52;7.00;;;;;;;21.71;70.85;101005.97;4992662;28;20521;-64
2022/09/06 06:28:47;;;;;;;18.92;12.27;;;;;;;21.74;70.66;100996.00;4993310;28;20046;-65
2022/09/06 06:31:15;;;;;;;15.07;10.80;;;;;;;21.69;71.92;101002.75;4990863;28;20618;-65
2022/09/06 06:33:43;;;;;;;13.32;7.75;;;;;;;21.94;70.98;100995.50;4995293;28;20134;-64
2022/09/06 06:36:13;;;;;;;13.73;4.57;;;;;;;21.96;70.08;101001.53;5028303;28;20823;-64
2022/09/06 06:38:41;;;;;;;;;;;;;;;22.05;69.42;100993.63;4994811;28;20050;-65
2022/09/06 06:41:11;;;;;;;9.40;4.57;;;;;;;22.06;69.53;101003.63;4996740;28;19932;-65
2022/09/06 06:43:38;;;;;;;10.07;4.20;;;;;;;21.88;70.42;101002.63;4996128;28;20079;-64
2022/09/06 06:46:16;;;;;;;9.95;4.22;;;;;;;22.30;75.95;101005.91;4997018;28;20047;-65
2022/09/06 06:48:44;;;;;;;13.00;4.18;;;;;;;22.52;77.53;101012.53;4997481;28;20076;-65
2022/09/06 06:51:14;;;;;;;9.00;3.67;;;;;;;22.34;74.70;101006.75;4995645;28;20513;-66
2022/09/06 06:53:48;;;;;;;9.07;3.60;;;;;;;22.38;78.43;101000.34;4996578;28;20049;-66
2022/09/06 06:56:29;;;;;;;10.25;3.90;;;;;;;22.25;76.48;100997.81;4997034;28;20055;-65
2022/09/06 06:58:58;;;;;;;10.98;3.80;;;;;;;22.29;77.76;101000.66;4996385;28;20057;-66
2022/09/06 07:01:27;;;;;;;10.67;4.20;;;;;;;22.31;74.48;101006.72;4994289;28;20057;-68
2022/09/06 07:03:55;;;;;;;11.90;4.15;;;;;;;22.63;75.92;100998.63;4994502;28;20058;-66
2022/09/06 07:06:23;;;;;;;11.10;3.22;;;;;;;22.82;73.57;100992.78;4992328;28;20425;-69
2022/09/06 07:09:10;;;;;;;12.20;4.00;;;;;;;22.63;70.61;100990.19;4965498;28;20055;-68
2022/09/06 07:11:38;;;;;;;10.07;4.38;;;;;;;22.61;69.01;100995.41;4995254;28;20539;-67
2022/09/06 07:14:05;;;;;;;11.18;4.40;;;;;;;22.74;67.70;100994.69;4997726;28;20046;-67
2022/09/06 07:16:32;;;;;;;14.95;5.57;;;;;;;22.69;67.83;100995.06;4995458;28;20049;-69
2022/09/06 07:19:00;;;;;;;12.75;4.40;;;;;;;22.63;66.83;100985.38;4996589;28;20437;-70
2022/09/06 07:21:27;;;;;;;12.95;4.22;;;;;;;22.67;66.48;100991.84;4995290;28;20502;-68
2022/09/06 07:24:06;;;;;;;8.90;4.40;;;;;;;22.85;66.23;100991.97;4994780;28;20490;-71
2022/09/06 07:26:36;;;;;;;22.75;15.70;;;;;;;22.81;66.30;100988.31;4995212;28;20042;-69
2022/09/06 07:29:06;;;;;;;26.75;14.25;;;;;;;22.67;66.63;100993.81;4994902;28;20434;-69
2022/09/06 07:31:34;;;;;;;15.43;5.72;;;;;;;22.84;65.81;100979.94;4988353;28;20046;-71
2022/09/06 07:34:23;;;;;;;9.93;4.07;;;;;;;22.87;65.82;100979.16;4996018;28;20046;-71
2022/09/06 07:36:52;;;;;;;13.15;4.18;;;;;;;22.73;65.84;100983.84;4995873;28;20490;-72
2022/09/06 07:39:20;;;;;;;10.40;3.92;;;;;;;22.75;65.69;100978.66;4996425;28;20050;-69
2022/09/06 07:41:47;;;;;;;10.48;4.57;;;;;;;22.76;65.63;100995.13;4994749;28;20058;-69
2022/09/06 07:44:15;;;;;;;9.23;3.88;;;;;;;22.78;65.32;101006.78;4995786;28;20049;-69
2022/09/06 07:46:42;;;;;;;9.20;3.65;;;;;;;22.84;64.96;101007.22;4994625;28;20057;-70
2022/09/06 07:49:09;;;;;;;12.23;4.03;;;;;;;22.85;64.27;101006.84;4996459;28;20061;-70
2022/09/06 07:51:37;;;;;;;11.60;4.55;;;;;;;23.01;62.40;101012.19;4995103;28;20489;-71
2022/09/06 07:54:05;;;;;;;9.05;4.00;;;;;;;23.15;61.17;101009.47;4994273;28;20054;-69
2022/09/06 07:56:53;;;;;;;8.73;2.88;;;;;;;22.37;62.14;101010.75;4994110;28;20046;-70
2022/09/06 07:59:20;;;;;;;7.10;2.75;;;;;;;22.54;61.26;101021.41;4993903;28;20124;-69
2022/09/06 08:01:48;;;;;;;8.35;3.15;;;;;;;22.27;61.47;101022.69;4994777;28;20407;-68
2022/09/06 08:04:16;;;;;;;6.97;2.80;;;;;;;22.51;61.61;101016.53;5010097;28;20058;-69
2022/09/06 08:06:47;;;;;;;9.82;2.97;;;;;;;22.77;61.33;101016.38;4994792;28;20625;-69
2022/09/06 08:09:34;;;;;;;12.75;3.95;;;;;;;23.04;60.50;101006.59;4994746;28;20526;-69
2022/09/06 08:12:05;;;;;;;8.30;3.10;;;;;;;23.17;60.18;101013.47;4994522;28;20061;-69
2022/09/06 08:14:33;;;;;;;6.97;3.00;;;;;;;23.23;59.59;101000.69;4994319;28;20054;-69
2022/09/06 08:17:04;;;;;;;7.25;2.70;;;;;;;22.98;60.48;101001.72;5006221;28;20054;-68
2022/09/06 08:19:33;;;;;;;8.27;2.80;;;;;;;23.18;59.94;101011.50;4995962;28;20065;-68
2022/09/06 08:22:00;;;;;;;9.40;2.53;;;;;;;23.30;58.93;101006.38;4993652;28;20061;-68
2022/09/06 08:24:28;;;;;;;9.07;3.40;;;;;;;23.36;58.56;101009.63;4997072;28;20049;-68
2022/09/06 08:26:55;;;;;;;6.15;2.38;;;;;;;23.29;58.60;101006.78;4994817;28;20388;-68
2022/09/06 08:29:22;;;;;;;8.82;2.88;;;;;;;23.25;59.18;101000.28;4995567;28;20054;-69
2022/09/06 08:31:50;;;;;;;10.98;3.10;;;;;;;23.37;58.91;100988.75;4992132;28;20050;-70
2022/09/06 08:34:17;;;;;;;9.55;5.28;;;;;;;23.29;58.51;100993.50;4994072;28;20049;-68
2022/09/06 08:36:45;;;;;;;7.15;3.28;;;;;;;23.25;58.75;100995.50;4989750;28;20046;-68
2022/09/06 08:39:12;;;;;;;7.22;2.97;;;;;;;23.35;58.71;100997.56;5022234;28;20046;-69
2022/09/06 08:41:46;;;;;;;9.57;3.25;;;;;;;23.36;58.19;100995.59;4995061;28;20054;-68
2022/09/06 08:44:19;;;;;;;7.68;2.95;;;;;;;23.24;58.02;100998.69;4995531;28;20061;-68
2022/09/06 08:47:08;;;;;;;8.70;2.58;;;;;;;23.24;58.25;100987.44;4989402;28;20046;-69
2022/09/06 08:49:38;;;;;;;9.40;2.57;;;;;;;23.40;57.74;100996.38;4993561;28;20050;-69
2022/09/06 08:52:23;;;;;;;12.38;3.33;;;;;;;23.71;56.93;100976.03;4994598;28;20073;-69
2022/09/06 08:55:15;;;;;;;9.40;3.00;;;;;;;23.79;56.72;100971.25;4976256;28;20407;-69
2022/09/06 08:58:19;;;;;;;21.30;3.65;;;;;;;23.91;56.24;100965.25;4994621;28;20525;-68
2022/09/06 09:00:50;;;;;;;14.93;2.85;;;;;;;24.04;55.12;100967.34;4973456;28;20047;-69
2022/09/06 09:03:21;;;;;;;18.27;3.92;;;;;;;23.94;54.84;100970.91;4988803;28;20054;-68
2022/09/06 09:05:51;;;;;;;18.65;2.92;;;;;;;24.12;54.68;100966.16;4992411;28;20046;-69
2022/09/06 09:08:25;;;;;;;8.85;2.75;;;;;;;24.15;54.14;100970.19;4992504;28;20053;-68
2022/09/06 09:10:59;;;;;;;20.58;3.40;;;;;;;24.16;54.03;100983.06;4994160;28;20061;-69
2022/09/06 09:13:31;;;;;;;9.82;2.92;;;;;;;24.29;53.87;100999.19;4994005;28;20061;-70
2022/09/06 09:15:59;;;;;;;27.27;2.92;;;;;;;24.50;53.10;101001.22;4993013;28;20050;-70
2022/09/06 09:18:29;;;;;;;12.32;2.33;;;;;;;24.46;52.05;101001.22;4993307;28;20050;-69
2022/09/06 09:20:57;;;;;;;14.73;2.28;;;;;;;24.86;50.51;101005.69;4993111;28;20536;-69
2022/09/06 09:23:25;;;;;;;6.82;2.10;;;;;;;24.51;51.39;101000.81;4993837;28;20483;-69
2022/09/06 09:25:57;;;;;;;8.63;2.30;;;;;;;24.48;52.24;100995.16;4992061;28;20509;-69
2022/09/06 09:28:24;;;;;;;6.70;2.38;;;;;;;24.58;51.96;101007.66;4993552;28;20058;-70
2022/09/06 09:30:53;;;;;;;6.18;2.03;;;;;;;24.63;52.83;101007.25;4994071;28;20490;-72
2022/09/06 09:33:28;;;;;;;15.43;5.17;;;;;;;24.83;52.54;101009.31;5000051;28;20041;-69
2022/09/06 09:36:01;;;;;;;11.23;4.00;;;;;;;24.74;51.99;101011.72;4978706;28;20390;-68
2022/09/06 09:38:31;;;;;;;10.77;2.50;;;;;;;24.93;51.25;101002.84;4976531;28;20410;-69
2022/09/06 09:41:04;;;;;;;13.98;2.30;;;;;;;24.95;51.45;101003.25;5001070;28;20486;-68
2022/09/06 09:43:34;;;;;;;9.77;2.70;;;;;;;25.05;50.59;101013.75;4984942;28;20050;-72
2022/09/06 09:46:23;;;;;;;13.45;2.60;;;;;;;25.07;51.10;101002.84;4993311;28;20046;-68
2022/09/06 09:49:04;;;;;;;6.83;2.27;;;;;;;25.07;51.58;101000.03;5008694;28;20054;-74
2022/09/06 09:51:32;;;;;;;;;;;;;;;25.26;50.72;100982.66;4993787;28;20069;-69
2022/09/06 09:54:02;;;;;;;10.45;3.20;;;;;;;25.28;50.59;100976.66;4990511;28;19926;-71
2022/09/06 09:56:53;;;;;;;10.25;2.75;;;;;;;25.36;50.69;100995.16;5020310;28;20053;-73
2022/09/06 09:59:22;;;;;;;12.43;3.22;;;;;;;25.23;50.59;101002.41;5016993;28;20042;-70
2022/09/06 10:01:52;;;;;;;8.02;2.80;;;;;;;25.26;50.99;101008.03;4977652;28;20061;-67
2022/09/06 10:04:30;;;;;;;14.35;2.17;;;;;;;25.32;50.75;101011.25;4998385;28;20045;-70
2022/09/06 10:07:19;;;;;;;8.27;2.17;;;;;;;25.26;50.38;101018.53;5001384;28;20055;-69
2022/09/06 10:10:01;;;;;;;9.30;2.10;;;;;;;25.30;49.70;101033.41;5009771;28;20054;-68
2022/09/06 10:12:39;;;;;;;11.80;1.90;;;;;;;25.25;49.92;101022.56;4995771;28;20046;-69
2022/09/06 10:15:09;;;;;;;13.23;2.40;;;;;;;25.18;50.15;101022.56;4995108;28;20075;-69
2022/09/06 10:17:47;;;;;;;13.32;2.85;;;;;;;25.42;50.76;101028.19;5026986;28;20073;-67
2022/09/06 10:20:15;;;;;;;11.23;3.22;;;;;;;25.54;50.52;101039.03;5000593;28;20046;-70
2022/09/06 10:22:53;;;;;;;30.25;4.22;;;;;;;25.70;50.39;101035.78;5005079;28;20050;-68
2022/09/06 10:25:43;;;;;;;15.73;2.65;;;;;;;25.62;50.95;101030.56;4992845;28;20184;-67
2022/09/06 10:28:28;;;;;;;9.80;2.50;;;;;;;25.70;50.99;101018.84;4977352;28;20042;-70
2022/09/06 10:31:14;;;;;;;;;;;;;;;25.57;50.85;101023.34;4995320;28;20047;-68
2022/09/06 10:34:17;;;;;;;21.00;3.50;;;;;;;25.37;50.53;101008.06;5012859;28;19922;-68
2022/09/06 10:37:11;;;;;;;59.38;5.68;;;;;;;25.33;51.14;100993.16;4980663;28;20085;-70
2022/09/06 10:39:44;;;;;;;81.68;7.47;;;;;;;25.34;51.34;100977.81;5004709;28;20060;-68
2022/09/06 10:42:23;;;;;;;31.73;3.67;;;;;;;25.34;51.33;100969.38;5001102;28;20050;-71
2022/09/06 10:45:18;;;;;;;55.27;4.87;;;;;;;25.20;52.30;100944.84;5017238;28;20061;-68
2022/09/06 10:48:03;;;;;;;47.85;4.80;;;;;;;25.10;52.90;100942.03;5006722;28;20115;-67
2022/09/06 10:50:50;;;;;;;31.10;4.60;;;;;;;24.98;52.63;100945.28;5012385;28;20049;-69
2022/09/06 10:53:21;;;;;;;16.15;4.90;;;;;;;24.85;52.68;100938.44;5007530;28;20045;-67
2022/09/06 10:55:56;;;;;;;7.88;2.38;;;;;;;24.89;52.94;100933.63;5010707;28;20046;-65
2022/09/06 10:58:32;;;;;;;9.00;2.50;;;;;;;25.05;52.44;100940.44;4988816;28;20057;-69
2022/09/06 11:01:40;;;;;;;10.57;3.28;;;;;;;25.04;53.10;100940.84;5006204;28;20054;-67
2022/09/06 11:04:12;;;;;;;9.80;3.58;;;;;;;25.25;53.08;100937.97;4989296;28;20062;-67
2022/09/06 11:06:46;;;;;;;12.90;4.00;;;;;;;25.36;52.02;100930.28;4997961;28;20049;-66
2022/09/06 11:09:24;;;;;;;14.00;2.90;;;;;;;25.44;51.98;100935.50;4979717;28;20070;-65
2022/09/06 11:12:11;;;;;;;11.43;3.38;;;;;;;25.44;51.77;100940.34;4998408;28;20049;-65
2022/09/06 11:14:41;;;;;;;7.47;2.90;;;;;;;25.60;51.64;100940.69;4991525;28;20050;-65
2022/09/06 11:17:27;;;;;;;8.75;3.30;;;;;;;25.65;51.66;100928.97;4996745;28;20050;-64
2022/09/06 11:20:13;;;;;;;14.77;4.25;;;;;;;25.68;51.07;100924.53;4996488;28;20065;-66
2022/09/06 11:22:52;;;;;;;14.98;4.30;;;;;;;25.74;51.10;100923.69;4991895;28;20060;-68
2022/09/06 11:25:45;;;;;;;14.68;5.07;;;;;;;25.60;51.63;100906.81;4991316;28;20047;-66
2022/09/06 11:28:16;;;;;;;11.52;4.05;;;;;;;25.66;51.33;100901.56;4994085;28;20061;-69
2022/09/06 11:30:45;;;;;;;5.93;2.65;;;;;;;25.63;51.40;100908.81;4993047;28;20065;-68
2022/09/06 11:33:28;;;;;;;7.47;2.40;;;;;;;25.51;52.79;100904.44;4992633;28;20050;-66
2022/09/06 11:36:17;;;;;;;10.57;2.88;;;;;;;25.52;52.12;100911.69;4996093;28;20046;-65
2022/09/06 11:38:59;;;;;;;10.03;2.60;;;;;;;25.50;51.83;100908.50;5021695;28;20498;-65
2022/09/06 11:41:31;;;;;;;9.77;2.40;;;;;;;25.54;52.69;100909.28;5022791;28;20065;-66
2022/09/06 11:43:59;;;;;;;10.27;2.45;;;;;;;25.77;51.54;100907.97;4975933;28;20077;-68
2022/09/06 11:46:33;;;;;;;15.75;3.22;;;;;;;26.01;50.91;100905.00;4992271;28;20046;-67